createdAt,value
2019-03-16T00:04:02.316Z,2.77
2019-03-16T00:14:07.201Z,2.70
2019-03-16T00:24:12.094Z,2.58
2019-03-16T00:34:16.976Z,2.60
2019-03-16T00:44:21.885Z,2.40
2019-03-16T00:54:26.865Z,2.77
2019-03-16T01:04:31.761Z,2.60
2019-03-16T01:14:36.759Z,2.60
2019-03-16T01:24:41.650Z,2.63
2019-03-16T01:34:46.633Z,1.50
2019-03-16T01:44:51.533Z,1.10
2019-03-16T01:54:56.533Z,1.00
2019-03-16T02:05:01.545Z,1.03
2019-03-16T02:15:08.239Z,0.93
2019-03-16T02:25:13.253Z,1.00
2019-03-16T02:35:18.357Z,0.90
2019-03-16T02:45:23.248Z,0.70
2019-03-16T02:55:28.233Z,0.90
2019-03-16T03:05:33.231Z,1.00
2019-03-16T03:15:38.119Z,0.72
2019-03-16T03:25:42.996Z,1.20
2019-03-16T03:35:48.014Z,1.13
2019-03-16T03:45:52.890Z,0.97
2019-03-16T03:55:57.756Z,0.83
2019-03-16T04:06:02.682Z,1.20
2019-03-16T04:16:07.688Z,0.93
2019-03-16T04:26:12.556Z,0.80
2019-03-16T04:36:17.661Z,1.07
2019-03-16T04:46:22.551Z,1.02
2019-03-16T04:56:27.535Z,1.30
2019-03-16T05:06:32.741Z,1.00
2019-03-16T05:16:37.753Z,1.10
2019-03-16T05:26:42.716Z,1.43
2019-03-16T05:36:47.831Z,1.30
2019-03-16T05:46:52.809Z,1.40
2019-03-16T05:56:57.809Z,1.23
2019-03-16T06:07:02.773Z,1.30
2019-03-16T06:17:07.688Z,2.30
2019-03-16T06:27:12.804Z,1.20
2019-03-16T06:37:17.906Z,1.60
2019-03-16T06:47:23.295Z,1.50
2019-03-16T06:57:28.490Z,1.87
2019-03-16T07:07:33.386Z,1.37
2019-03-16T07:17:38.370Z,1.87
2019-03-16T07:27:43.432Z,1.70
2019-03-16T07:37:48.463Z,2.20
2019-03-16T07:47:53.467Z,2.00
2019-03-16T07:57:58.338Z,1.60
2019-03-16T08:08:03.371Z,2.50
2019-03-16T08:18:08.358Z,3.10
2019-03-16T08:28:13.324Z,2.03
2019-03-16T08:38:18.420Z,1.60
2019-03-16T08:48:23.547Z,3.93
2019-03-16T08:58:28.607Z,5.47
2019-03-16T09:08:33.619Z,2.30
2019-03-16T09:18:38.710Z,3.40
2019-03-16T09:28:43.816Z,2.37
2019-03-16T09:38:48.802Z,2.87
2019-03-16T09:48:53.895Z,2.60
2019-03-16T09:58:58.782Z,1.80
2019-03-16T10:09:04.475Z,2.30
2019-03-16T10:19:09.484Z,2.10
2019-03-16T10:29:14.486Z,3.03
2019-03-16T10:39:19.424Z,2.33
2019-03-16T10:49:24.364Z,2.23
2019-03-16T10:59:29.256Z,2.50
2019-03-16T11:09:34.295Z,2.70
2019-03-16T11:19:39.241Z,2.77
2019-03-16T11:29:44.231Z,2.70
2019-03-16T11:39:49.231Z,2.50
2019-03-16T11:49:54.324Z,3.17
2019-03-16T11:59:59.315Z,3.10
2019-03-16T12:10:07.348Z,4.17
2019-03-16T12:20:17.717Z,2.90
2019-03-16T12:30:21.358Z,6.80
2019-03-16T12:40:26.425Z,2.20
2019-03-16T12:50:31.529Z,2.27
2019-03-16T13:00:36.438Z,4.07
2019-03-16T13:10:41.444Z,3.70
2019-03-16T13:20:46.674Z,2.63
2019-03-16T13:30:51.789Z,3.30
2019-03-16T13:40:56.847Z,2.73
2019-03-16T13:51:01.864Z,2.77
2019-03-16T14:01:07.183Z,3.37
2019-03-16T14:11:12.593Z,3.03
2019-03-16T14:21:19.571Z,3.23
2019-03-16T14:31:25.026Z,2.93
2019-03-16T14:41:30.385Z,3.03
2019-03-16T14:51:35.732Z,2.40
2019-03-16T15:01:40.922Z,3.13
2019-03-16T15:11:46.620Z,3.30
2019-03-16T15:21:52.970Z,2.93
2019-03-16T15:31:58.053Z,2.35
2019-03-16T15:42:03.183Z,3.33
2019-03-16T15:52:08.552Z,3.47
2019-03-16T16:02:13.954Z,4.10
2019-03-16T16:12:19.403Z,3.70
2019-03-16T16:22:26.203Z,12.63
2019-03-16T16:32:31.614Z,6.17
2019-03-16T16:42:37.211Z,7.70
2019-03-16T16:52:42.496Z,12.80
2019-03-16T17:02:48.689Z,35.13
2019-03-16T17:12:54.146Z,67.53
2019-03-16T17:22:59.344Z,17.97
2019-03-16T17:33:05.552Z,13.90
2019-03-16T17:43:11.147Z,22.97
2019-03-16T17:53:16.452Z,19.62
2019-03-16T18:03:21.774Z,14.33
2019-03-16T18:13:26.979Z,11.40
2019-03-16T18:23:32.042Z,6.13
2019-03-16T18:33:37.652Z,6.73
2019-03-16T18:43:43.071Z,7.50
2019-03-16T18:53:48.143Z,2.53
2019-03-16T19:03:54.322Z,3.80
2019-03-16T19:14:00.614Z,4.37
2019-03-16T19:24:05.704Z,7.50
2019-03-16T19:34:10.902Z,12.33
2019-03-16T19:44:16.185Z,6.12
2019-03-16T19:54:21.302Z,7.15
2019-03-16T20:04:35.417Z,9.80
2019-03-16T20:14:34.472Z,14.20
2019-03-16T20:24:39.744Z,15.80
2019-03-16T20:34:45.015Z,14.37
2019-03-16T20:55:35.459Z,7.57
2019-03-16T21:05:40.555Z,15.93
2019-03-16T21:15:45.939Z,14.43
2019-03-16T21:25:51.180Z,9.80
2019-03-16T21:35:56.354Z,9.53
2019-03-16T21:46:01.475Z,9.67
2019-03-16T21:56:06.760Z,10.83
2019-03-16T22:06:11.786Z,10.57
2019-03-16T22:16:16.828Z,13.20
2019-03-16T22:26:21.937Z,15.45
2019-03-16T22:36:26.806Z,16.47
2019-03-16T22:46:31.935Z,12.80
2019-03-16T22:56:36.850Z,18.10
2019-03-16T23:06:41.790Z,21.33
2019-03-16T23:16:46.683Z,22.50
2019-03-16T23:26:51.584Z,26.50
2019-03-16T23:36:56.670Z,20.97
2019-03-16T23:47:01.663Z,22.47
2019-03-16T23:57:06.551Z,25.53
